KAKH/AKH METAR and TAF weather

Enter ICAO airport designator
Station Type Date Time Source
KAKH METAR 2020/06/03 21:54 UTC NOAA

KAKH 032154Z AUTO 22007KT 190V260 10SM CLR 31/19 A2990 RMK AO2 SLP118 T03060194


Station Type Date Time Source
KAKH Decoded METAR 2020/06/03 21:54 UTC NOAA

GASTONIA MUNICIPAL AIRPORT, NC, United States (KAKH) 35-12N 81-09W 243M
Jun 03, 2020 - 05:54 PM EDT / 2020.06.03 2154 UTC
Wind: from the SW (220 degrees) at 8 MPH (7 KT) (direction variable):0
Visibility: 10 mile(s):0
Sky conditions: clear
Temperature: 87.1 F (30.6 C)
Dew Point: 66.9 F (19.4 C)
Relative Humidity: 51%
Pressure (altimeter): 29.9 in. Hg (1012 hPa)
ob: KAKH 032154Z AUTO 22007KT 190V260 10SM CLR 31/19 A2990 RMK AO2 SLP118 T03060194
cycle: 22

Station Type Date Time Source
KAKH TAF UTC NOAA

Error!

Example: see airport list